< < Back
Terminal Aerodrome Forecast


Current Version              Previous Versions:   1  2  3  4  5  6  7  8  9  

Terminal Aerodrome Forecast

041
FTAK31 PAJN 281100
TAFAHN
TAF
PAHN 281125Z 2812/2912 VRB03KT P6SM -SHRA SCT003 OVC015
      TEMPO 2812/2816 4SM -SHRA BR BKN003 OVC010
     FM281600 VRB03KT P6SM -RA SCT010 OVC025
     FM282100 12006KT P6SM -RA SCT025 OVC050
     FM290900 10005KT 5SM -RA BR SCT010 BKN025 OVC050
      AMD LTD TO CLD VIS AND WIND=

Latest METAR

779
SAUS70 KWBC 281600
MTRAHN
METAR KAHN 281551Z 28008G15KT 10SM CLR 32/21 A2992 RMK AO2 SLP122
T03170211


USA.gov is the U.S. government's official web portal to all federal, state and local government web resources and services.